BEL7YC LIRQ-EBBR
Flight info
| Callsign | BEL7YC |
|---|---|
| Flight time | 1h 30m |
| Altitude | 36000 |
| Route | BIBNO DCT BEROK DCT GOLAS DCT TONDA DCT PIMOT DCT AOSTA DCT ORSUD DCT MOLUS DCT GILIR DCT PENDU DCT IXILU DCT GIVOR DCT SORAL DCT IBERA DCT DIK Y37 BATTY |
| Aircraft | A20N/M-DE3FGHIJ1LORVWY/HB1G1 |
Departure
| Time | 2026-04-25 19:34 |
|---|---|
| Airport | Florence Airport, Peretola (LIRQ) |
Arrival
| Time | 2026-04-25 21:04 |
|---|---|
| Airport | Brussels Airport (EBBR) |
| Time | Latitude | Longitude | Altitude | Speed | Heading |
|---|---|---|---|---|---|
| 2026-04-25 19:25 | 43.80812 | 11.19654 | 136 ft | 0 kts | 266° |
| 2026-04-25 19:27 | 43.80810 | 11.19648 | 135 ft | 1 kts | 235° |
| 2026-04-25 19:27 | 43.80801 | 11.19645 | 135 ft | 3 kts | 171° |
| 2026-04-25 19:27 | 43.80773 | 11.19675 | 135 ft | 5 kts | 190° |
| 2026-04-25 19:27 | 43.80727 | 11.19607 | 135 ft | 9 kts | 223° |
| 2026-04-25 19:28 | 43.80676 | 11.19628 | 135 ft | 8 kts | 138° |
| 2026-04-25 19:28 | 43.80630 | 11.19684 | 135 ft | 8 kts | 138° |
| 2026-04-25 19:28 | 43.80581 | 11.19744 | 136 ft | 9 kts | 137° |
| 2026-04-25 19:28 | 43.80562 | 11.19817 | 136 ft | 8 kts | 68° |
| 2026-04-25 19:29 | 43.80602 | 11.19886 | 136 ft | 9 kts | 50° |
| 2026-04-25 19:29 | 43.80651 | 11.19963 | 136 ft | 11 kts | 47° |
| 2026-04-25 19:29 | 43.80722 | 11.20075 | 137 ft | 19 kts | 47° |
| 2026-04-25 19:29 | 43.80812 | 11.20209 | 138 ft | 17 kts | 46° |
| 2026-04-25 19:30 | 43.80893 | 11.20332 | 139 ft | 16 kts | 49° |
| 2026-04-25 19:30 | 43.80964 | 11.20446 | 140 ft | 15 kts | 49° |
| 2026-04-25 19:30 | 43.81033 | 11.20552 | 141 ft | 14 kts | 47° |
| 2026-04-25 19:30 | 43.81102 | 11.20659 | 142 ft | 15 kts | 49° |
| 2026-04-25 19:31 | 43.81174 | 11.20768 | 144 ft | 15 kts | 47° |
| 2026-04-25 19:31 | 43.81244 | 11.20874 | 145 ft | 14 kts | 49° |
| 2026-04-25 19:31 | 43.81322 | 11.20997 | 147 ft | 17 kts | 48° |
| 2026-04-25 19:31 | 43.81401 | 11.21120 | 148 ft | 16 kts | 48° |
| 2026-04-25 19:32 | 43.81477 | 11.21242 | 149 ft | 15 kts | 62° |
| 2026-04-25 19:32 | 43.81513 | 11.21340 | 150 ft | 7 kts | 24° |
| 2026-04-25 19:32 | 43.81533 | 11.21332 | 150 ft | 2 kts | 276° |
| 2026-04-25 19:32 | 43.81531 | 11.21323 | 150 ft | 2 kts | 247° |
| 2026-04-25 19:33 | 43.81528 | 11.21316 | 150 ft | 0 kts | 228° |
| 2026-04-25 19:33 | 43.81522 | 11.21307 | 150 ft | 16 kts | 228° |
| 2026-04-25 19:33 | 43.81242 | 11.20871 | 145 ft | 101 kts | 228° |
| 2026-04-25 19:34 | 43.80619 | 11.19901 | 230 ft | 156 kts | 229° |
| 2026-04-25 19:34 | 43.80010 | 11.18688 | 923 ft | 159 kts | 253° |
| 2026-04-25 19:34 | 43.79995 | 11.17137 | 1588 ft | 173 kts | 276° |
| 2026-04-25 19:34 | 43.80159 | 11.15386 | 2122 ft | 191 kts | 276° |
| 2026-04-25 19:35 | 43.80335 | 11.13488 | 2641 ft | 205 kts | 276° |
| 2026-04-25 19:35 | 43.80519 | 11.11463 | 3118 ft | 223 kts | 276° |
| 2026-04-25 19:35 | 43.80710 | 11.09306 | 3929 ft | 227 kts | 276° |
| 2026-04-25 19:35 | 43.80899 | 11.07157 | 4829 ft | 228 kts | 277° |
| 2026-04-25 19:36 | 43.81308 | 11.05021 | 5520 ft | 239 kts | 298° |
| 2026-04-25 19:36 | 43.82234 | 11.03041 | 6098 ft | 255 kts | 306° |
| 2026-04-25 19:36 | 43.83324 | 11.00998 | 6714 ft | 270 kts | 306° |
| 2026-04-25 19:36 | 43.84434 | 10.98875 | 7572 ft | 275 kts | 305° |
| 2026-04-25 19:37 | 43.85539 | 10.96718 | 8471 ft | 277 kts | 305° |
| 2026-04-25 19:37 | 43.86654 | 10.94530 | 9333 ft | 280 kts | 305° |
| 2026-04-25 19:37 | 43.87793 | 10.92293 | 10146 ft | 284 kts | 305° |
| 2026-04-25 19:37 | 43.88940 | 10.90040 | 10809 ft | 294 kts | 305° |
| 2026-04-25 19:38 | 43.90161 | 10.87642 | 11236 ft | 312 kts | 305° |
| 2026-04-25 19:38 | 43.91442 | 10.85123 | 11644 ft | 329 kts | 305° |
| 2026-04-25 19:38 | 43.92773 | 10.82504 | 12296 ft | 336 kts | 305° |
| 2026-04-25 19:38 | 43.94128 | 10.79835 | 13098 ft | 339 kts | 304° |
| 2026-04-25 19:39 | 43.95491 | 10.77146 | 13870 ft | 341 kts | 304° |
| 2026-04-25 19:39 | 43.96857 | 10.74448 | 14611 ft | 344 kts | 304° |
| 2026-04-25 19:39 | 43.98227 | 10.71740 | 15339 ft | 347 kts | 304° |
| 2026-04-25 19:39 | 43.99612 | 10.68998 | 16064 ft | 349 kts | 304° |
| 2026-04-25 19:40 | 44.01008 | 10.66231 | 16755 ft | 351 kts | 304° |
| 2026-04-25 19:40 | 44.02415 | 10.63439 | 17431 ft | 354 kts | 304° |
| 2026-04-25 19:40 | 44.03836 | 10.60617 | 18110 ft | 356 kts | 303° |
| 2026-04-25 19:40 | 44.05264 | 10.57779 | 18769 ft | 358 kts | 303° |
| 2026-04-25 19:41 | 44.06684 | 10.54948 | 19379 ft | 361 kts | 304° |
| 2026-04-25 19:41 | 44.08130 | 10.52062 | 19985 ft | 364 kts | 304° |
| 2026-04-25 19:41 | 44.09595 | 10.49138 | 20563 ft | 367 kts | 304° |
| 2026-04-25 19:41 | 44.10068 | 10.48193 | 20747 ft | 368 kts | 304° |
| 2026-04-25 19:42 | 44.12552 | 10.43266 | 21692 ft | 373 kts | 304° |
| 2026-04-25 19:42 | 44.14045 | 10.40291 | 22231 ft | 376 kts | 305° |
| 2026-04-25 19:42 | 44.15546 | 10.37289 | 22778 ft | 379 kts | 304° |
| 2026-04-25 19:42 | 44.16964 | 10.34219 | 23314 ft | 381 kts | 301° |
| 2026-04-25 19:43 | 44.18304 | 10.30959 | 23861 ft | 384 kts | 299° |
| 2026-04-25 19:43 | 44.19598 | 10.27717 | 24366 ft | 387 kts | 299° |
| 2026-04-25 19:43 | 44.20918 | 10.24398 | 24868 ft | 390 kts | 299° |
| 2026-04-25 19:43 | 44.22232 | 10.21091 | 25355 ft | 393 kts | 299° |
| 2026-04-25 19:44 | 44.23561 | 10.17739 | 25824 ft | 395 kts | 299° |
| 2026-04-25 19:44 | 44.24893 | 10.14379 | 26274 ft | 398 kts | 299° |
| 2026-04-25 19:44 | 44.26238 | 10.10985 | 26712 ft | 401 kts | 299° |
| 2026-04-25 19:44 | 44.27592 | 10.07563 | 27151 ft | 403 kts | 299° |
| 2026-04-25 19:45 | 44.28964 | 10.04090 | 27581 ft | 405 kts | 299° |
| 2026-04-25 19:45 | 44.30325 | 10.00642 | 27994 ft | 407 kts | 299° |
| 2026-04-25 19:45 | 44.31699 | 9.97156 | 28371 ft | 410 kts | 299° |
| 2026-04-25 19:45 | 44.33078 | 9.93654 | 28744 ft | 413 kts | 299° |
| 2026-04-25 19:46 | 44.34469 | 9.90114 | 29217 ft | 412 kts | 299° |
| 2026-04-25 19:46 | 44.35843 | 9.86611 | 29744 ft | 411 kts | 299° |
| 2026-04-25 19:46 | 44.37210 | 9.83124 | 30275 ft | 409 kts | 299° |
| 2026-04-25 19:46 | 44.38578 | 9.79628 | 30784 ft | 407 kts | 299° |
| 2026-04-25 19:47 | 44.39920 | 9.76187 | 31234 ft | 407 kts | 299° |
| 2026-04-25 19:47 | 44.41260 | 9.72749 | 31667 ft | 406 kts | 299° |
| 2026-04-25 19:47 | 44.42613 | 9.69278 | 32090 ft | 405 kts | 299° |
| 2026-04-25 19:47 | 44.43957 | 9.65828 | 32514 ft | 404 kts | 299° |
| 2026-04-25 19:48 | 44.45336 | 9.62410 | 32922 ft | 403 kts | 301° |
| 2026-04-25 19:48 | 44.46862 | 9.59056 | 33302 ft | 402 kts | 304° |
| 2026-04-25 19:48 | 44.48402 | 9.55855 | 33550 ft | 400 kts | 304° |
| 2026-04-25 19:48 | 44.49971 | 9.52608 | 33693 ft | 400 kts | 304° |
| 2026-04-25 19:49 | 44.51543 | 9.49352 | 33801 ft | 400 kts | 304° |
| 2026-04-25 19:49 | 44.52047 | 9.48306 | 33835 ft | 400 kts | 304° |
| 2026-04-25 19:49 | 44.54643 | 9.42910 | 34117 ft | 402 kts | 304° |
| 2026-04-25 19:49 | 44.56200 | 9.39667 | 34439 ft | 401 kts | 304° |
| 2026-04-25 19:50 | 44.59317 | 9.33154 | 35019 ft | 402 kts | 303° |
| 2026-04-25 19:50 | 44.60875 | 9.29879 | 35265 ft | 403 kts | 303° |
| 2026-04-25 19:50 | 44.62432 | 9.26603 | 35502 ft | 404 kts | 303° |
| 2026-04-25 19:51 | 44.63987 | 9.23332 | 35728 ft | 405 kts | 303° |
| 2026-04-25 19:51 | 44.65554 | 9.20036 | 35961 ft | 406 kts | 303° |
| 2026-04-25 19:51 | 44.67110 | 9.16761 | 36046 ft | 407 kts | 303° |
| 2026-04-25 19:52 | 44.70260 | 9.10123 | 36055 ft | 407 kts | 303° |
| 2026-04-25 19:52 | 44.73393 | 9.03507 | 36055 ft | 407 kts | 303° |
| 2026-04-25 19:53 | 44.76531 | 8.96866 | 36054 ft | 407 kts | 303° |
| 2026-04-25 19:53 | 44.79670 | 8.90210 | 36043 ft | 407 kts | 303° |
| 2026-04-25 19:54 | 44.82807 | 8.83541 | 36039 ft | 408 kts | 303° |
| 2026-04-25 19:54 | 44.85938 | 8.76868 | 36031 ft | 408 kts | 303° |
| 2026-04-25 19:55 | 44.89153 | 8.70300 | 36023 ft | 408 kts | 310° |
| 2026-04-25 19:55 | 44.93070 | 8.64487 | 36022 ft | 408 kts | 314° |
| 2026-04-25 19:56 | 44.97039 | 8.58741 | 36023 ft | 408 kts | 314° |
| 2026-04-25 19:56 | 45.00984 | 8.52974 | 36022 ft | 408 kts | 314° |
| 2026-04-25 19:57 | 45.04913 | 8.47195 | 36024 ft | 408 kts | 314° |
| 2026-04-25 19:57 | 45.08861 | 8.41368 | 36018 ft | 408 kts | 314° |
| 2026-04-25 19:58 | 45.12724 | 8.35673 | 36018 ft | 409 kts | 314° |
| 2026-04-25 19:58 | 45.16695 | 8.29796 | 36022 ft | 408 kts | 313° |
| 2026-04-25 19:59 | 45.20597 | 8.23989 | 36027 ft | 408 kts | 313° |
| 2026-04-25 19:59 | 45.24522 | 8.18138 | 36025 ft | 408 kts | 313° |
| 2026-04-25 20:00 | 45.28437 | 8.12290 | 36040 ft | 408 kts | 313° |
| 2026-04-25 20:00 | 45.32371 | 8.06404 | 36051 ft | 409 kts | 313° |
| 2026-04-25 20:01 | 45.38244 | 7.97590 | 36064 ft | 409 kts | 313° |
| 2026-04-25 20:01 | 45.42177 | 7.91673 | 36073 ft | 409 kts | 313° |
| 2026-04-25 20:02 | 45.46075 | 7.85796 | 36095 ft | 409 kts | 313° |
| 2026-04-25 20:02 | 45.49963 | 7.79920 | 36119 ft | 409 kts | 313° |
| 2026-04-25 20:03 | 45.53877 | 7.73990 | 36140 ft | 409 kts | 313° |
| 2026-04-25 20:03 | 45.57750 | 7.68109 | 36162 ft | 409 kts | 313° |
| 2026-04-25 20:04 | 45.61666 | 7.62148 | 36177 ft | 409 kts | 313° |
| 2026-04-25 20:04 | 45.65546 | 7.56230 | 36174 ft | 410 kts | 313° |
| 2026-04-25 20:05 | 45.69457 | 7.50246 | 36153 ft | 410 kts | 313° |
| 2026-04-25 20:05 | 45.73346 | 7.44282 | 36148 ft | 409 kts | 313° |
| 2026-04-25 20:06 | 45.77283 | 7.38309 | 36173 ft | 410 kts | 315° |
| 2026-04-25 20:06 | 45.81538 | 7.32889 | 36193 ft | 410 kts | 320° |
| 2026-04-25 20:07 | 45.86127 | 7.28041 | 36214 ft | 410 kts | 323° |
| 2026-04-25 20:07 | 45.90781 | 7.23301 | 36216 ft | 410 kts | 323° |
| 2026-04-25 20:08 | 45.95418 | 7.18578 | 36219 ft | 410 kts | 323° |
| 2026-04-25 20:08 | 46.00100 | 7.13805 | 36229 ft | 411 kts | 323° |
| 2026-04-25 20:09 | 46.04742 | 7.09054 | 36229 ft | 410 kts | 323° |
| 2026-04-25 20:09 | 46.09427 | 7.04243 | 36220 ft | 411 kts | 323° |
| 2026-04-25 20:10 | 46.14086 | 6.99469 | 36212 ft | 411 kts | 323° |
| 2026-04-25 20:10 | 46.18766 | 6.94661 | 36222 ft | 411 kts | 323° |
| 2026-04-25 20:11 | 46.23423 | 6.89850 | 36217 ft | 411 kts | 323° |
| 2026-04-25 20:11 | 46.28093 | 6.85008 | 36205 ft | 411 kts | 323° |
| 2026-04-25 20:12 | 46.32710 | 6.80206 | 36202 ft | 411 kts | 323° |
| 2026-04-25 20:12 | 46.35794 | 6.76992 | 36199 ft | 410 kts | 323° |
| 2026-04-25 20:13 | 46.42042 | 6.70523 | 36184 ft | 411 kts | 325° |
| 2026-04-25 20:13 | 46.46962 | 6.66278 | 36175 ft | 413 kts | 331° |
| 2026-04-25 20:14 | 46.52138 | 6.62580 | 36160 ft | 413 kts | 333° |
| 2026-04-25 20:14 | 46.57315 | 6.58945 | 36148 ft | 413 kts | 333° |
| 2026-04-25 20:15 | 46.62497 | 6.55292 | 36146 ft | 413 kts | 333° |
| 2026-04-25 20:15 | 46.67671 | 6.51633 | 36145 ft | 413 kts | 333° |
| 2026-04-25 20:16 | 46.72854 | 6.47957 | 36144 ft | 414 kts | 333° |
| 2026-04-25 20:16 | 46.78046 | 6.44264 | 36146 ft | 414 kts | 333° |
| 2026-04-25 20:17 | 46.83258 | 6.40665 | 36145 ft | 415 kts | 338° |
| 2026-04-25 20:17 | 46.88923 | 6.38915 | 36149 ft | 420 kts | 355° |
| 2026-04-25 20:18 | 46.94798 | 6.38855 | 36153 ft | 421 kts | 358° |
| 2026-04-25 20:18 | 47.00696 | 6.38919 | 36157 ft | 422 kts | 358° |
| 2026-04-25 20:19 | 47.06529 | 6.38963 | 36153 ft | 421 kts | 358° |
| 2026-04-25 20:19 | 47.12394 | 6.38991 | 36151 ft | 422 kts | 358° |
| 2026-04-25 20:20 | 47.18291 | 6.39012 | 36145 ft | 422 kts | 358° |
| 2026-04-25 20:20 | 47.24144 | 6.39032 | 36148 ft | 421 kts | 358° |
| 2026-04-25 20:21 | 47.30054 | 6.39048 | 36142 ft | 421 kts | 358° |
| 2026-04-25 20:21 | 47.35922 | 6.39062 | 36144 ft | 421 kts | 358° |
| 2026-04-25 20:22 | 47.39817 | 6.39072 | 36149 ft | 421 kts | 358° |
| 2026-04-25 20:22 | 47.47633 | 6.39092 | 36148 ft | 421 kts | 358° |
| 2026-04-25 20:23 | 47.53485 | 6.39111 | 36146 ft | 421 kts | 358° |
| 2026-04-25 20:23 | 47.59345 | 6.39112 | 36151 ft | 421 kts | 358° |
| 2026-04-25 20:24 | 47.65185 | 6.39119 | 36147 ft | 420 kts | 357° |
| 2026-04-25 20:24 | 47.71034 | 6.39124 | 36139 ft | 420 kts | 358° |
| 2026-04-25 20:25 | 47.76890 | 6.39123 | 36139 ft | 420 kts | 357° |
| 2026-04-25 20:25 | 47.82746 | 6.39119 | 36143 ft | 420 kts | 357° |
| 2026-04-25 20:26 | 47.88555 | 6.38619 | 36145 ft | 418 kts | 353° |
| 2026-04-25 20:26 | 47.94362 | 6.37862 | 36153 ft | 418 kts | 353° |
| 2026-04-25 20:27 | 48.00139 | 6.37122 | 36161 ft | 418 kts | 353° |
| 2026-04-25 20:27 | 48.05992 | 6.36385 | 36159 ft | 418 kts | 353° |
| 2026-04-25 20:28 | 48.11692 | 6.35670 | 36167 ft | 418 kts | 353° |
| 2026-04-25 20:28 | 48.17530 | 6.34943 | 36163 ft | 418 kts | 352° |
| 2026-04-25 20:29 | 48.23323 | 6.34193 | 36162 ft | 418 kts | 352° |
| 2026-04-25 20:29 | 48.29131 | 6.33444 | 36156 ft | 418 kts | 352° |
| 2026-04-25 20:30 | 48.34938 | 6.32706 | 36162 ft | 418 kts | 352° |
| 2026-04-25 20:30 | 48.40748 | 6.31970 | 36162 ft | 418 kts | 352° |
| 2026-04-25 20:31 | 48.46536 | 6.31236 | 36159 ft | 418 kts | 352° |
| 2026-04-25 20:31 | 48.52355 | 6.30499 | 36159 ft | 418 kts | 352° |
| 2026-04-25 20:32 | 48.58115 | 6.29767 | 36158 ft | 418 kts | 352° |
| 2026-04-25 20:32 | 48.63916 | 6.29027 | 36157 ft | 418 kts | 352° |
| 2026-04-25 20:33 | 48.69722 | 6.28285 | 36157 ft | 418 kts | 352° |
| 2026-04-25 20:33 | 48.74574 | 6.27663 | 36158 ft | 418 kts | 352° |
| 2026-04-25 20:34 | 48.81354 | 6.26792 | 36157 ft | 418 kts | 352° |
| 2026-04-25 20:34 | 48.87156 | 6.26047 | 35973 ft | 418 kts | 352° |
| 2026-04-25 20:35 | 48.90044 | 6.25675 | 36074 ft | 420 kts | 352° |
| 2026-04-25 20:35 | 48.92954 | 6.25301 | 36120 ft | 420 kts | 352° |
| 2026-04-25 20:35 | 48.98802 | 6.24545 | 36101 ft | 420 kts | 352° |
| 2026-04-25 20:36 | 49.04582 | 6.23796 | 36116 ft | 419 kts | 352° |
| 2026-04-25 20:36 | 49.10318 | 6.23050 | 36152 ft | 419 kts | 352° |
| 2026-04-25 20:37 | 49.16133 | 6.22298 | 36162 ft | 419 kts | 352° |
| 2026-04-25 20:37 | 49.21975 | 6.21540 | 36165 ft | 419 kts | 352° |
| 2026-04-25 20:38 | 49.27779 | 6.20781 | 36167 ft | 419 kts | 352° |
| 2026-04-25 20:38 | 49.33586 | 6.20020 | 36173 ft | 420 kts | 352° |
| 2026-04-25 20:39 | 49.39432 | 6.19250 | 36177 ft | 419 kts | 352° |
| 2026-04-25 20:39 | 49.44249 | 6.18616 | 36178 ft | 419 kts | 352° |
| 2026-04-25 20:40 | 49.51022 | 6.17720 | 36180 ft | 419 kts | 352° |
| 2026-04-25 20:40 | 49.56838 | 6.16949 | 36185 ft | 419 kts | 352° |
| 2026-04-25 20:41 | 49.62488 | 6.15048 | 36186 ft | 412 kts | 335° |
| 2026-04-25 20:41 | 49.65078 | 6.13228 | 35991 ft | 410 kts | 331° |
| 2026-04-25 20:41 | 49.67605 | 6.11244 | 35233 ft | 418 kts | 330° |
| 2026-04-25 20:42 | 49.70233 | 6.09141 | 34297 ft | 425 kts | 330° |
| 2026-04-25 20:42 | 49.72851 | 6.07047 | 33502 ft | 426 kts | 330° |
| 2026-04-25 20:42 | 49.75466 | 6.04959 | 32765 ft | 425 kts | 330° |
| 2026-04-25 20:42 | 49.78088 | 6.02870 | 31995 ft | 426 kts | 330° |
| 2026-04-25 20:43 | 49.80718 | 6.00778 | 31175 ft | 427 kts | 330° |
| 2026-04-25 20:43 | 49.83331 | 5.98697 | 30331 ft | 428 kts | 330° |
| 2026-04-25 20:43 | 49.85981 | 5.96583 | 29462 ft | 429 kts | 330° |
| 2026-04-25 20:43 | 49.88627 | 5.94472 | 28563 ft | 430 kts | 330° |
| 2026-04-25 20:44 | 49.91280 | 5.92354 | 27649 ft | 431 kts | 330° |
| 2026-04-25 20:44 | 49.93932 | 5.90236 | 26965 ft | 426 kts | 330° |
| 2026-04-25 20:44 | 49.96553 | 5.88141 | 26366 ft | 421 kts | 330° |
| 2026-04-25 20:44 | 49.99145 | 5.86065 | 25718 ft | 417 kts | 330° |
| 2026-04-25 20:45 | 50.01684 | 5.84029 | 25300 ft | 407 kts | 330° |
| 2026-04-25 20:45 | 50.04141 | 5.82057 | 25212 ft | 395 kts | 330° |
| 2026-04-25 20:45 | 50.06574 | 5.80101 | 25205 ft | 394 kts | 330° |
| 2026-04-25 20:45 | 50.09032 | 5.78121 | 25200 ft | 394 kts | 330° |
| 2026-04-25 20:46 | 50.11364 | 5.76243 | 25198 ft | 394 kts | 330° |
| 2026-04-25 20:46 | 50.13817 | 5.74274 | 25197 ft | 395 kts | 330° |
| 2026-04-25 20:46 | 50.16277 | 5.72297 | 25195 ft | 395 kts | 330° |
| 2026-04-25 20:46 | 50.18692 | 5.70350 | 25196 ft | 395 kts | 330° |
| 2026-04-25 20:47 | 50.21168 | 5.68350 | 25196 ft | 396 kts | 330° |
| 2026-04-25 20:47 | 50.23611 | 5.66373 | 25196 ft | 396 kts | 330° |
| 2026-04-25 20:47 | 50.26042 | 5.64403 | 25197 ft | 396 kts | 330° |
| 2026-04-25 20:47 | 50.28463 | 5.62437 | 25198 ft | 397 kts | 330° |
| 2026-04-25 20:48 | 50.30960 | 5.60406 | 25198 ft | 397 kts | 330° |
| 2026-04-25 20:48 | 50.33424 | 5.58400 | 25201 ft | 397 kts | 330° |
| 2026-04-25 20:48 | 50.35866 | 5.56409 | 25201 ft | 398 kts | 330° |
| 2026-04-25 20:48 | 50.38323 | 5.54403 | 25201 ft | 398 kts | 330° |
| 2026-04-25 20:49 | 50.40800 | 5.52379 | 25202 ft | 397 kts | 330° |
| 2026-04-25 20:49 | 50.43247 | 5.50378 | 25203 ft | 397 kts | 330° |
| 2026-04-25 20:49 | 50.45640 | 5.48418 | 25204 ft | 397 kts | 330° |
| 2026-04-25 20:49 | 50.48068 | 5.46427 | 25204 ft | 397 kts | 330° |
| 2026-04-25 20:50 | 50.50525 | 5.44410 | 25166 ft | 395 kts | 330° |
| 2026-04-25 20:50 | 50.52958 | 5.42410 | 24630 ft | 396 kts | 330° |
| 2026-04-25 20:50 | 50.55387 | 5.40409 | 23820 ft | 394 kts | 330° |
| 2026-04-25 20:50 | 50.57784 | 5.38435 | 23053 ft | 384 kts | 330° |
| 2026-04-25 20:51 | 50.60131 | 5.36495 | 22298 ft | 381 kts | 331° |
| 2026-04-25 20:51 | 50.62465 | 5.34562 | 21542 ft | 377 kts | 330° |
| 2026-04-25 20:51 | 50.64722 | 5.32682 | 20795 ft | 366 kts | 330° |
| 2026-04-25 20:51 | 50.66938 | 5.30833 | 20043 ft | 354 kts | 330° |
| 2026-04-25 20:52 | 50.69076 | 5.29051 | 19297 ft | 343 kts | 331° |
| 2026-04-25 20:52 | 50.70467 | 5.27892 | 18798 ft | 337 kts | 331° |
| 2026-04-25 20:52 | 50.73169 | 5.25641 | 17842 ft | 326 kts | 331° |
| 2026-04-25 20:52 | 50.75198 | 5.24143 | 17065 ft | 320 kts | 343° |
| 2026-04-25 20:53 | 50.77354 | 5.23740 | 16355 ft | 315 kts | 359° |
| 2026-04-25 20:53 | 50.79525 | 5.23886 | 15640 ft | 311 kts | 2° |
| 2026-04-25 20:53 | 50.81672 | 5.24132 | 14871 ft | 306 kts | 2° |
| 2026-04-25 20:53 | 50.83782 | 5.24393 | 14118 ft | 301 kts | 2° |
| 2026-04-25 20:54 | 50.85855 | 5.24653 | 13422 ft | 297 kts | 2° |
| 2026-04-25 20:54 | 50.87878 | 5.24908 | 12707 ft | 294 kts | 2° |
| 2026-04-25 20:54 | 50.89904 | 5.25166 | 11970 ft | 290 kts | 2° |
| 2026-04-25 20:54 | 50.91901 | 5.25422 | 11247 ft | 287 kts | 2° |
| 2026-04-25 20:55 | 50.93819 | 5.25668 | 10513 ft | 283 kts | 2° |
| 2026-04-25 20:55 | 50.95742 | 5.25910 | 9773 ft | 280 kts | 2° |
| 2026-04-25 20:55 | 50.97687 | 5.26097 | 8993 ft | 276 kts | 356° |
| 2026-04-25 20:55 | 50.99466 | 5.25392 | 8258 ft | 272 kts | 330° |
| 2026-04-25 20:56 | 51.00825 | 5.23470 | 7524 ft | 272 kts | 304° |
| 2026-04-25 20:56 | 51.01449 | 5.20652 | 6892 ft | 268 kts | 275° |
| 2026-04-25 20:56 | 51.01312 | 5.17756 | 6659 ft | 269 kts | 265° |
| 2026-04-25 20:56 | 51.00999 | 5.14799 | 6398 ft | 270 kts | 263° |
| 2026-04-25 20:57 | 51.00660 | 5.11871 | 6156 ft | 269 kts | 262° |
| 2026-04-25 20:57 | 51.00320 | 5.08957 | 5859 ft | 266 kts | 262° |
| 2026-04-25 20:57 | 50.99988 | 5.06097 | 5538 ft | 263 kts | 263° |
| 2026-04-25 20:57 | 50.99670 | 5.03369 | 5266 ft | 258 kts | 262° |
| 2026-04-25 20:58 | 50.99344 | 5.00581 | 4951 ft | 255 kts | 262° |
| 2026-04-25 20:58 | 50.99022 | 4.97837 | 4635 ft | 247 kts | 263° |
| 2026-04-25 20:58 | 50.98735 | 4.95187 | 4304 ft | 237 kts | 268° |
| 2026-04-25 20:58 | 50.98646 | 4.92657 | 4024 ft | 230 kts | 269° |
| 2026-04-25 20:59 | 50.98411 | 4.90125 | 3990 ft | 233 kts | 260° |
| 2026-04-25 20:59 | 50.97985 | 4.87618 | 3981 ft | 234 kts | 257° |
| 2026-04-25 20:59 | 50.97507 | 4.85177 | 3983 ft | 234 kts | 255° |
| 2026-04-25 20:59 | 50.96978 | 4.82744 | 3963 ft | 234 kts | 253° |
| 2026-04-25 21:00 | 50.96417 | 4.80299 | 3810 ft | 234 kts | 252° |
| 2026-04-25 21:00 | 50.96227 | 4.79486 | 3722 ft | 234 kts | 252° |
| 2026-04-25 21:00 | 50.94712 | 4.73062 | 2879 ft | 228 kts | 252° |
| 2026-04-25 21:01 | 50.94174 | 4.70770 | 2575 ft | 216 kts | 252° |
| 2026-04-25 21:01 | 50.93674 | 4.68634 | 2350 ft | 194 kts | 252° |
| 2026-04-25 21:01 | 50.93225 | 4.66715 | 2110 ft | 182 kts | 253° |
| 2026-04-25 21:01 | 50.92806 | 4.64908 | 1867 ft | 171 kts | 253° |
| 2026-04-25 21:02 | 50.92425 | 4.63269 | 1628 ft | 163 kts | 253° |
| 2026-04-25 21:02 | 50.92046 | 4.61637 | 1393 ft | 154 kts | 253° |
| 2026-04-25 21:02 | 50.91679 | 4.60050 | 1203 ft | 147 kts | 253° |
| 2026-04-25 21:02 | 50.91342 | 4.58601 | 996 ft | 138 kts | 253° |
| 2026-04-25 21:03 | 50.91016 | 4.57190 | 829 ft | 137 kts | 253° |
| 2026-04-25 21:03 | 50.90693 | 4.55790 | 654 ft | 136 kts | 252° |
| 2026-04-25 21:03 | 50.90373 | 4.54407 | 474 ft | 134 kts | 252° |
| 2026-04-25 21:03 | 50.90055 | 4.53023 | 292 ft | 133 kts | 252° |
| 2026-04-25 21:04 | 50.89744 | 4.51676 | 167 ft | 127 kts | 252° |
| 2026-04-25 21:04 | 50.89488 | 4.50563 | 174 ft | 82 kts | 250° |
| 2026-04-25 21:04 | 50.89350 | 4.49972 | 176 ft | 32 kts | 252° |
| 2026-04-25 21:04 | 50.89353 | 4.49702 | 173 ft | 16 kts | 305° |
| 2026-04-25 21:05 | 50.89429 | 4.49548 | 168 ft | 19 kts | 308° |
| 2026-04-25 21:05 | 50.89514 | 4.49369 | 164 ft | 21 kts | 308° |
| 2026-04-25 21:05 | 50.89583 | 4.49225 | 159 ft | 15 kts | 308° |
| 2026-04-25 21:05 | 50.89650 | 4.49147 | 158 ft | 11 kts | 8° |
| 2026-04-25 21:06 | 50.89743 | 4.49184 | 155 ft | 16 kts | 14° |
| 2026-04-25 21:06 | 50.89858 | 4.49230 | 151 ft | 18 kts | 14° |
| 2026-04-25 21:06 | 50.89987 | 4.49283 | 148 ft | 20 kts | 14° |
| 2026-04-25 21:06 | 50.90082 | 4.49320 | 147 ft | 21 kts | 13° |
| 2026-04-25 21:07 | 50.90280 | 4.49402 | 140 ft | 14 kts | 10° |
| 2026-04-25 21:07 | 50.90361 | 4.49342 | 138 ft | 13 kts | 330° |
| 2026-04-25 21:07 | 50.90453 | 4.49276 | 137 ft | 12 kts | 335° |
| 2026-04-25 21:07 | 50.90541 | 4.49211 | 133 ft | 15 kts | 336° |
| 2026-04-25 21:08 | 50.90645 | 4.49123 | 130 ft | 16 kts | 295° |
| 2026-04-25 21:08 | 50.90614 | 4.48956 | 130 ft | 16 kts | 247° |
| 2026-04-25 21:08 | 50.90564 | 4.48787 | 130 ft | 17 kts | 244° |
| 2026-04-25 21:08 | 50.90515 | 4.48617 | 130 ft | 17 kts | 246° |
| 2026-04-25 21:09 | 50.90413 | 4.48264 | 130 ft | 18 kts | 246° |
| 2026-04-25 21:09 | 50.90368 | 4.48110 | 130 ft | 8 kts | 242° |
| 2026-04-25 21:09 | 50.90327 | 4.48114 | 130 ft | 6 kts | 157° |
| 2026-04-25 21:10 | 50.90287 | 4.48141 | 132 ft | 5 kts | 156° |
| 2026-04-25 21:10 | 50.90280 | 4.48146 | 132 ft | 0 kts | 155° |